createdAt,value
2018-10-07T00:00:06.869Z,998.00
2018-10-07T00:01:06.862Z,998.04
2018-10-07T00:02:06.847Z,998.05
2018-10-07T00:03:06.844Z,998.09
2018-10-07T00:04:06.850Z,998.02
2018-10-07T00:05:06.814Z,998.04
2018-10-07T00:06:06.809Z,998.07
2018-10-07T00:07:06.792Z,998.04
2018-10-07T00:08:06.781Z,998.07
2018-10-07T00:09:06.796Z,998.16
2018-10-07T00:10:06.757Z,998.26
2018-10-07T00:11:06.749Z,998.30
2018-10-07T00:12:06.731Z,998.33
2018-10-07T00:13:06.724Z,998.36
2018-10-07T00:14:06.737Z,998.44
2018-10-07T00:15:06.699Z,998.45
2018-10-07T00:16:06.687Z,998.42
2018-10-07T00:17:06.677Z,998.41
2018-10-07T00:18:06.668Z,998.49
2018-10-07T00:19:06.676Z,998.46
2018-10-07T00:20:07.095Z,998.48
2018-10-07T00:21:06.758Z,998.57
2018-10-07T00:22:06.688Z,998.62
2018-10-07T00:23:06.665Z,998.68
2018-10-07T00:24:06.615Z,998.77
2018-10-07T00:25:06.589Z,998.79
2018-10-07T00:26:06.568Z,998.89
2018-10-07T00:27:06.657Z,998.96
2018-10-07T00:28:07.957Z,999.00
2018-10-07T00:29:06.729Z,998.97
2018-10-07T00:30:06.523Z,998.96
2018-10-07T00:31:06.613Z,998.96
2018-10-07T00:32:06.498Z,998.93
2018-10-07T00:33:06.509Z,998.99
2018-10-07T00:34:06.496Z,998.99
2018-10-07T00:35:06.663Z,998.95
2018-10-07T00:36:06.982Z,998.99
2018-10-07T00:37:06.790Z,998.97
2018-10-07T00:38:06.580Z,998.96
2018-10-07T00:39:06.576Z,998.94
2018-10-07T00:40:06.412Z,998.94
2018-10-07T00:41:06.495Z,998.97
2018-10-07T00:42:06.401Z,998.97
2018-10-07T00:43:06.511Z,998.96
2018-10-07T00:44:06.582Z,999.00
2018-10-07T00:45:06.357Z,999.06
2018-10-07T00:46:06.340Z,999.07
2018-10-07T00:47:06.635Z,999.07
2018-10-07T00:48:06.320Z,999.08
2018-10-07T00:49:06.322Z,999.05
2018-10-07T00:50:06.297Z,999.06
2018-10-07T00:51:06.284Z,999.12
2018-10-07T00:52:06.333Z,999.11
2018-10-07T00:53:06.859Z,999.10
2018-10-07T00:54:06.468Z,999.12
2018-10-07T00:55:06.345Z,999.18
2018-10-07T00:56:06.828Z,999.25
2018-10-07T00:57:06.724Z,999.31
2018-10-07T00:58:06.196Z,999.30
2018-10-07T00:59:06.317Z,999.28
2018-10-07T01:00:06.307Z,999.31
2018-10-07T01:01:06.163Z,999.31
2018-10-07T01:02:06.154Z,999.29
2018-10-07T01:03:06.268Z,999.32
2018-10-07T01:04:06.148Z,999.31
2018-10-07T01:05:06.125Z,999.38
2018-10-07T01:06:07.014Z,999.37
2018-10-07T01:07:07.653Z,999.39
2018-10-07T01:08:06.088Z,999.34
2018-10-07T01:09:06.095Z,999.37
2018-10-07T01:10:06.080Z,999.38
2018-10-07T01:11:06.531Z,999.40
2018-10-07T01:12:06.095Z,999.43
2018-10-07T01:13:06.115Z,999.48
2018-10-07T01:14:06.044Z,999.46
2018-10-07T01:15:06.007Z,999.51
2018-10-07T01:16:06.609Z,999.49
2018-10-07T01:17:06.212Z,999.50
2018-10-07T01:18:06.249Z,999.56
2018-10-07T01:19:06.744Z,999.54
2018-10-07T01:20:05.987Z,999.55
2018-10-07T01:21:06.023Z,999.51
2018-10-07T01:22:06.431Z,999.50
2018-10-07T01:23:06.624Z,999.48
2018-10-07T01:24:06.135Z,999.47
2018-10-07T01:25:05.886Z,999.42
2018-10-07T01:26:06.164Z,999.51
2018-10-07T01:27:06.022Z,999.48
2018-10-07T01:28:05.988Z,999.50
2018-10-07T01:29:05.910Z,999.53
2018-10-07T01:30:05.839Z,999.56
2018-10-07T01:31:05.819Z,999.67
2018-10-07T01:32:05.819Z,999.75
2018-10-07T01:33:05.800Z,999.81
2018-10-07T01:34:05.906Z,999.82
2018-10-07T01:35:06.188Z,999.83
2018-10-07T01:36:06.874Z,999.86
2018-10-07T01:37:06.365Z,999.85
2018-10-07T01:38:06.318Z,999.90
2018-10-07T01:39:08.695Z,999.92
2018-10-07T01:40:05.924Z,999.95
2018-10-07T01:41:05.793Z,999.98
2018-10-07T01:42:05.885Z,1000.00
2018-10-07T01:43:05.784Z,1000.02
2018-10-07T01:44:05.699Z,1000.01
2018-10-07T01:45:05.655Z,1000.06
2018-10-07T01:46:05.717Z,1000.09
2018-10-07T01:47:05.640Z,1000.07
2018-10-07T01:48:05.630Z,1000.09
2018-10-07T01:49:05.837Z,1000.10
2018-10-07T01:50:05.607Z,1000.11
2018-10-07T01:51:05.618Z,1000.12
2018-10-07T01:52:05.829Z,1000.08
2018-10-07T01:53:06.352Z,1000.11
2018-10-07T01:54:05.575Z,1000.11
2018-10-07T01:55:05.550Z,1000.13
2018-10-07T01:56:05.543Z,1000.17
2018-10-07T01:57:05.520Z,1000.12
2018-10-07T01:58:05.511Z,1000.11
2018-10-07T01:59:05.520Z,1000.16
2018-10-07T02:00:05.491Z,1000.17
2018-10-07T02:01:05.477Z,1000.20
2018-10-07T02:02:05.461Z,1000.22
2018-10-07T02:03:05.453Z,1000.27
2018-10-07T02:04:05.457Z,1000.26
2018-10-07T02:05:05.485Z,1000.32
2018-10-07T02:06:05.413Z,1000.35
2018-10-07T02:07:05.403Z,1000.33
2018-10-07T02:08:05.391Z,1000.32
2018-10-07T02:09:05.405Z,1000.34
2018-10-07T02:10:05.389Z,1000.34
2018-10-07T02:11:05.355Z,1000.32
2018-10-07T02:12:05.345Z,1000.36
2018-10-07T02:13:05.335Z,1000.37
2018-10-07T02:14:05.436Z,1000.42
2018-10-07T02:15:05.314Z,1000.44
2018-10-07T02:16:05.301Z,1000.42
2018-10-07T02:17:05.286Z,1000.43
2018-10-07T02:18:05.278Z,1000.47
2018-10-07T02:19:05.289Z,1000.45
2018-10-07T02:20:05.262Z,1000.44
2018-10-07T02:21:05.237Z,1000.48
2018-10-07T02:22:05.233Z,1000.50
2018-10-07T02:23:05.221Z,1000.44
2018-10-07T02:24:05.223Z,1000.49
2018-10-07T02:25:05.201Z,1000.51
2018-10-07T02:26:05.189Z,1000.48
2018-10-07T02:27:05.172Z,1000.48
2018-10-07T02:28:05.167Z,1000.53
2018-10-07T02:29:05.171Z,1000.51
2018-10-07T02:30:05.134Z,1000.51
2018-10-07T02:31:05.132Z,1000.49
2018-10-07T02:32:05.113Z,1000.49
2018-10-07T02:33:05.104Z,1000.49
2018-10-07T02:34:05.118Z,1000.45
2018-10-07T02:35:05.076Z,1000.45
2018-10-07T02:36:05.073Z,1000.41
2018-10-07T02:37:05.055Z,1000.43
2018-10-07T02:38:05.042Z,1000.39
2018-10-07T02:39:05.061Z,1000.38
2018-10-07T02:40:05.020Z,1000.39
2018-10-07T02:41:05.014Z,1000.39
2018-10-07T02:42:05.002Z,1000.43
2018-10-07T02:43:04.984Z,1000.45
2018-10-07T02:44:05.002Z,1000.42
2018-10-07T02:45:04.958Z,1000.43
2018-10-07T02:46:04.951Z,1000.41
2018-10-07T02:47:04.943Z,1000.40
2018-10-07T02:48:04.924Z,1000.36
2018-10-07T02:49:04.944Z,1000.34
2018-10-07T02:50:04.911Z,1000.34
2018-10-07T02:51:04.896Z,1000.27
2018-10-07T02:52:04.887Z,1000.32
2018-10-07T02:53:04.889Z,1000.33
2018-10-07T02:54:04.886Z,1000.33
2018-10-07T02:55:04.848Z,1000.33
2018-10-07T02:56:04.838Z,1000.34
2018-10-07T02:57:04.825Z,1000.35
2018-10-07T02:58:04.816Z,1000.33
2018-10-07T02:59:04.830Z,1000.38
2018-10-07T03:00:04.786Z,1000.34
2018-10-07T03:01:04.784Z,1000.40
2018-10-07T03:02:04.763Z,1000.38
2018-10-07T03:03:04.760Z,1000.41
2018-10-07T03:04:04.773Z,1000.41
2018-10-07T03:05:04.729Z,1000.42
2018-10-07T03:06:04.725Z,1000.39
2018-10-07T03:07:04.705Z,1000.35
2018-10-07T03:08:04.693Z,1000.34
2018-10-07T03:09:04.716Z,1000.35
2018-10-07T03:10:04.670Z,1000.29
2018-10-07T03:11:04.661Z,1000.31
2018-10-07T03:12:04.657Z,1000.31
2018-10-07T03:13:04.640Z,1000.32
2018-10-07T03:14:04.653Z,1000.30
2018-10-07T03:15:04.612Z,1000.32
2018-10-07T03:16:04.615Z,1000.34
2018-10-07T03:17:04.590Z,1000.33
2018-10-07T03:18:04.581Z,1000.31
2018-10-07T03:19:04.595Z,1000.30
2018-10-07T03:20:04.553Z,1000.33
2018-10-07T03:21:04.554Z,1000.34
2018-10-07T03:22:04.536Z,1000.33
2018-10-07T03:23:04.522Z,1000.36
2018-10-07T03:24:04.539Z,1000.36
2018-10-07T03:25:04.495Z,1000.38
2018-10-07T03:26:04.487Z,1000.44
2018-10-07T03:27:04.477Z,1000.44
2018-10-07T03:28:04.464Z,1000.48
2018-10-07T03:29:04.481Z,1000.50
2018-10-07T03:30:04.444Z,1000.49
2018-10-07T03:31:04.432Z,1000.48
2018-10-07T03:32:04.415Z,1000.50
2018-10-07T03:33:04.412Z,1000.52
2018-10-07T03:34:04.420Z,1000.49
2018-10-07T03:35:04.384Z,1000.53
2018-10-07T03:36:04.378Z,1000.50
2018-10-07T03:37:04.358Z,1000.57
2018-10-07T03:38:04.348Z,1000.50
2018-10-07T03:39:04.371Z,1000.53
2018-10-07T03:40:04.329Z,1000.58
2018-10-07T03:41:04.314Z,1000.53
2018-10-07T03:42:04.300Z,1000.60
2018-10-07T03:43:04.297Z,1000.56
2018-10-07T03:44:04.303Z,1000.61
2018-10-07T03:45:04.270Z,1000.60
2018-10-07T03:46:04.262Z,1000.65
2018-10-07T03:47:04.242Z,1000.65
2018-10-07T03:48:04.239Z,1000.69
2018-10-07T03:49:04.239Z,1000.70
2018-10-07T03:50:04.216Z,1000.72
2018-10-07T03:51:04.196Z,1000.75
2018-10-07T03:52:04.183Z,1000.73
2018-10-07T03:53:04.181Z,1000.79
2018-10-07T03:54:04.181Z,1000.84
2018-10-07T03:55:04.154Z,1000.85
2018-10-07T03:56:04.141Z,1000.84
2018-10-07T03:57:04.125Z,1000.85
2018-10-07T03:58:04.119Z,1000.91
2018-10-07T03:59:04.126Z,1000.91
2018-10-07T04:00:04.091Z,1001.05
2018-10-07T04:01:04.088Z,1001.03
2018-10-07T04:02:04.073Z,1001.04
2018-10-07T04:03:04.058Z,1001.06
2018-10-07T04:04:04.078Z,1001.08
2018-10-07T04:05:04.043Z,1001.13
2018-10-07T04:06:04.019Z,1001.14
2018-10-07T04:07:04.017Z,1001.17
2018-10-07T04:08:04.005Z,1001.22
2018-10-07T04:09:04.007Z,1001.27
2018-10-07T04:10:03.983Z,1001.23
2018-10-07T04:11:03.962Z,1001.21
2018-10-07T04:12:03.952Z,1001.27
2018-10-07T04:13:03.943Z,1001.30
2018-10-07T04:14:03.949Z,1001.30
2018-10-07T04:15:03.919Z,1001.32
2018-10-07T04:16:03.908Z,1001.34
2018-10-07T04:17:03.899Z,1001.36
2018-10-07T04:18:03.895Z,1001.37
2018-10-07T04:19:03.892Z,1001.46
2018-10-07T04:20:03.862Z,1001.47
2018-10-07T04:21:03.851Z,1001.48
2018-10-07T04:22:03.836Z,1001.47
2018-10-07T04:23:03.834Z,1001.51
2018-10-07T04:24:03.838Z,1001.54
2018-10-07T04:25:03.802Z,1001.52
2018-10-07T04:26:03.794Z,1001.56
2018-10-07T04:27:03.779Z,1001.66
2018-10-07T04:28:03.772Z,1001.65
2018-10-07T04:29:03.780Z,1001.61
2018-10-07T04:30:03.743Z,1001.63
2018-10-07T04:31:03.737Z,1001.69
2018-10-07T04:32:03.723Z,1001.79
2018-10-07T04:33:03.710Z,1001.80
2018-10-07T04:34:03.715Z,1001.72
2018-10-07T04:35:03.684Z,1001.83
2018-10-07T04:36:03.676Z,1001.85
2018-10-07T04:37:03.748Z,1001.82
2018-10-07T04:38:03.654Z,1001.96
2018-10-07T04:39:03.662Z,1002.02
2018-10-07T04:40:03.630Z,1002.11
2018-10-07T04:41:03.621Z,1002.13
2018-10-07T04:42:03.603Z,1002.17
2018-10-07T04:43:03.595Z,1002.24
2018-10-07T04:44:03.605Z,1002.19
2018-10-07T04:45:03.570Z,1002.14
2018-10-07T04:46:03.554Z,1002.16
2018-10-07T04:47:03.553Z,1002.10
2018-10-07T04:48:03.534Z,1002.18
2018-10-07T04:49:03.548Z,1002.08
2018-10-07T04:50:03.511Z,1002.11
2018-10-07T04:51:03.499Z,1002.06
2018-10-07T04:52:03.489Z,1002.13
2018-10-07T04:53:03.482Z,1002.04
2018-10-07T04:54:03.499Z,1002.07
2018-10-07T04:55:03.453Z,1002.06
2018-10-07T04:56:03.447Z,1002.08
2018-10-07T04:57:03.432Z,1002.08
2018-10-07T04:58:03.417Z,1002.12
2018-10-07T04:59:03.415Z,1002.12
2018-10-07T05:00:03.447Z,1002.12
2018-10-07T05:01:03.387Z,1002.13
2018-10-07T05:02:03.375Z,1002.19
2018-10-07T05:03:03.360Z,1002.22
2018-10-07T05:04:03.347Z,1002.23
2018-10-07T05:05:03.370Z,1002.28
2018-10-07T05:06:03.331Z,1002.32
2018-10-07T05:07:03.319Z,1002.30
2018-10-07T05:08:03.309Z,1002.20
2018-10-07T05:09:03.294Z,1002.29
2018-10-07T05:10:03.309Z,1002.18
2018-10-07T05:11:03.271Z,1002.21
2018-10-07T05:12:03.323Z,1002.16
2018-10-07T05:13:03.252Z,1002.22
2018-10-07T05:14:03.243Z,1002.33
2018-10-07T05:15:03.245Z,1002.30
2018-10-07T05:16:03.212Z,1002.44
2018-10-07T05:17:03.209Z,1002.52
2018-10-07T05:18:03.189Z,1002.54
2018-10-07T05:19:03.179Z,1002.53
2018-10-07T05:20:03.197Z,1002.57
2018-10-07T05:21:03.243Z,1002.65
2018-10-07T05:22:03.154Z,1002.70
2018-10-07T05:23:03.131Z,1002.72
2018-10-07T05:24:03.122Z,1002.67
2018-10-07T05:25:03.136Z,1002.72
2018-10-07T05:26:03.105Z,1002.66
2018-10-07T05:27:03.089Z,1002.76
2018-10-07T05:28:03.080Z,1002.76
2018-10-07T05:29:03.066Z,1002.80
2018-10-07T05:30:03.078Z,1002.87
2018-10-07T05:31:03.052Z,1002.88
2018-10-07T05:32:03.039Z,1002.96
2018-10-07T05:33:03.042Z,1003.05
2018-10-07T05:34:03.009Z,1003.08
2018-10-07T05:35:03.031Z,1003.07
2018-10-07T05:36:02.992Z,1003.11
2018-10-07T05:37:02.978Z,1003.11
2018-10-07T05:38:02.967Z,1003.17
2018-10-07T05:39:02.954Z,1003.18
2018-10-07T05:40:02.959Z,1003.19
2018-10-07T05:41:02.934Z,1003.21
2018-10-07T05:42:02.926Z,1003.16
2018-10-07T05:43:02.911Z,1003.15
2018-10-07T05:44:02.902Z,1003.13
2018-10-07T05:45:02.905Z,1003.19
2018-10-07T05:46:02.932Z,1003.30
2018-10-07T05:47:02.857Z,1003.35
2018-10-07T05:48:02.871Z,1003.41
2018-10-07T05:49:03.104Z,1003.39
2018-10-07T05:50:02.848Z,1003.35
2018-10-07T05:51:02.824Z,1003.35
2018-10-07T05:52:02.803Z,1003.36
2018-10-07T05:53:02.796Z,1003.31
2018-10-07T05:54:02.787Z,1003.38
2018-10-07T05:55:03.571Z,1003.39
2018-10-07T05:56:02.764Z,1003.42
2018-10-07T05:57:02.743Z,1003.44
2018-10-07T05:58:02.747Z,1003.46
2018-10-07T05:59:02.721Z,1003.42
2018-10-07T06:00:02.732Z,1003.44
2018-10-07T06:01:02.706Z,1003.50
2018-10-07T06:02:02.750Z,1003.46
2018-10-07T06:03:02.684Z,1003.50
2018-10-07T06:04:02.669Z,1003.54
2018-10-07T06:05:02.678Z,1003.56
2018-10-07T06:06:02.641Z,1003.57
2018-10-07T06:07:02.645Z,1003.59
2018-10-07T06:08:02.627Z,1003.66
2018-10-07T06:09:03.051Z,1003.71
2018-10-07T06:10:02.636Z,1003.66
2018-10-07T06:11:02.585Z,1003.66
2018-10-07T06:12:02.575Z,1003.71
2018-10-07T06:13:02.567Z,1003.71
2018-10-07T06:14:02.558Z,1003.69
2018-10-07T06:15:02.649Z,1003.71
2018-10-07T06:16:02.532Z,1003.73
2018-10-07T06:17:02.520Z,1003.71
2018-10-07T06:18:02.505Z,1003.70
2018-10-07T06:19:02.501Z,1003.69
2018-10-07T06:20:02.491Z,1003.69
2018-10-07T06:21:02.492Z,1003.70
2018-10-07T06:22:02.462Z,1003.74
2018-10-07T06:23:02.456Z,1003.73
2018-10-07T06:24:02.436Z,1003.75
2018-10-07T06:25:02.433Z,1003.77
2018-10-07T06:26:02.444Z,1003.84
2018-10-07T06:27:02.404Z,1003.88
2018-10-07T06:28:02.394Z,1003.99
2018-10-07T06:29:02.380Z,1004.06
2018-10-07T06:30:02.534Z,1004.10
2018-10-07T06:31:02.388Z,1004.19
2018-10-07T06:32:02.500Z,1004.18
2018-10-07T06:33:02.339Z,1004.28
2018-10-07T06:34:02.322Z,1004.24
2018-10-07T06:35:02.371Z,1004.32
2018-10-07T06:36:02.331Z,1004.25
2018-10-07T06:37:02.293Z,1004.36
2018-10-07T06:38:02.276Z,1004.41
2018-10-07T06:39:02.316Z,1004.48
2018-10-07T06:40:02.264Z,1004.53
2018-10-07T06:41:02.269Z,1004.53
2018-10-07T06:42:02.254Z,1004.54
2018-10-07T06:43:02.231Z,1004.58
2018-10-07T06:44:02.216Z,1004.55
2018-10-07T06:45:02.201Z,1004.59
2018-10-07T06:46:02.218Z,1004.64
2018-10-07T06:47:02.177Z,1004.66
2018-10-07T06:48:02.167Z,1004.58
2018-10-07T06:49:02.153Z,1004.68
2018-10-07T06:50:02.146Z,1004.69
2018-10-07T06:51:02.155Z,1004.68
2018-10-07T06:52:02.152Z,1004.74
2018-10-07T06:53:02.105Z,1004.81
2018-10-07T06:54:02.104Z,1004.86
2018-10-07T06:55:02.080Z,1004.93
2018-10-07T06:56:02.092Z,1004.93
2018-10-07T06:57:02.091Z,1004.98
2018-10-07T06:58:02.055Z,1005.05
2018-10-07T06:59:02.043Z,1005.04
2018-10-07T07:00:02.030Z,1005.05
2018-10-07T07:01:02.185Z,1005.07
2018-10-07T07:02:02.000Z,1005.09
2018-10-07T07:03:01.999Z,1005.10
2018-10-07T07:04:01.981Z,1005.09
2018-10-07T07:05:01.979Z,1005.20
2018-10-07T07:06:02.048Z,1005.24
2018-10-07T07:07:01.949Z,1005.28
2018-10-07T07:08:01.940Z,1005.30
2018-10-07T07:09:01.922Z,1005.33
2018-10-07T07:10:01.907Z,1005.32
2018-10-07T07:11:01.928Z,1005.33
2018-10-07T07:12:01.888Z,1005.38
2018-10-07T07:13:01.918Z,1005.43
2018-10-07T07:14:01.878Z,1005.48
2018-10-07T07:15:01.857Z,1005.52
2018-10-07T07:16:01.870Z,1005.53
2018-10-07T07:17:01.828Z,1005.54
2018-10-07T07:18:01.855Z,1005.61
2018-10-07T07:19:01.811Z,1005.64
2018-10-07T07:20:01.801Z,1005.68
2018-10-07T07:21:01.821Z,1005.67
2018-10-07T07:22:01.983Z,1005.75
2018-10-07T07:23:01.761Z,1005.77
2018-10-07T07:24:01.755Z,1005.86
2018-10-07T07:25:01.737Z,1005.79
2018-10-07T07:26:01.747Z,1005.81
2018-10-07T07:27:01.717Z,1005.85
2018-10-07T07:28:01.699Z,1005.84
2018-10-07T07:29:01.698Z,1005.88
2018-10-07T07:30:01.715Z,1005.80
2018-10-07T07:31:01.697Z,1005.81
2018-10-07T07:32:01.661Z,1005.84
2018-10-07T07:33:01.663Z,1005.77
2018-10-07T07:34:01.630Z,1005.81
2018-10-07T07:35:01.632Z,1005.82
2018-10-07T07:36:01.647Z,1005.84
2018-10-07T07:37:01.678Z,1005.90
2018-10-07T07:38:01.595Z,1005.95
2018-10-07T07:39:01.575Z,1005.97
2018-10-07T07:40:01.570Z,1006.03
2018-10-07T07:41:01.585Z,1006.11
2018-10-07T07:42:01.538Z,1006.04
2018-10-07T07:43:01.536Z,1006.17
2018-10-07T07:44:01.523Z,1006.11
2018-10-07T07:45:01.508Z,1006.13
2018-10-07T07:46:01.518Z,1006.10
2018-10-07T07:47:01.483Z,1006.04
2018-10-07T07:48:02.037Z,1006.18
2018-10-07T07:49:01.591Z,1006.20
2018-10-07T07:50:01.554Z,1006.17
2018-10-07T07:51:01.510Z,1006.21
2018-10-07T07:52:01.536Z,1006.20
2018-10-07T07:53:01.503Z,1006.17
2018-10-07T07:54:02.146Z,1006.23
2018-10-07T07:55:01.631Z,1006.22
2018-10-07T07:56:01.672Z,1006.20
2018-10-07T07:57:01.478Z,1006.29
2018-10-07T07:58:01.360Z,1006.34
2018-10-07T07:59:01.452Z,1006.25
2018-10-07T08:00:01.445Z,1006.25
2018-10-07T08:01:03.979Z,1006.28
2018-10-07T08:02:01.854Z,1006.25
2018-10-07T08:03:01.416Z,1006.26
2018-10-07T08:04:01.283Z,1006.25
2018-10-07T08:05:01.397Z,1006.27
2018-10-07T08:06:01.320Z,1006.25
2018-10-07T08:07:01.286Z,1006.27
2018-10-07T08:08:01.567Z,1006.31
2018-10-07T08:09:01.809Z,1006.30
2018-10-07T08:10:01.788Z,1006.29
2018-10-07T08:11:01.291Z,1006.26
2018-10-07T08:12:01.267Z,1006.27
2018-10-07T08:13:01.460Z,1006.19
2018-10-07T08:14:01.353Z,1006.26
2018-10-07T08:15:01.343Z,1006.25
2018-10-07T08:16:01.791Z,1006.22
2018-10-07T08:17:01.587Z,1006.24
2018-10-07T08:18:01.318Z,1006.26
2018-10-07T08:20:25.200Z,1006.29
2018-10-07T08:21:25.220Z,1006.14
2018-10-07T08:22:27.853Z,1006.28
2018-10-07T08:23:29.561Z,1006.54
2018-10-07T08:24:29.452Z,1006.78
2018-10-07T08:25:29.443Z,1006.66
2018-10-07T08:26:29.453Z,1006.34
2018-10-07T08:27:29.418Z,1006.86
2018-10-07T08:28:29.407Z,1006.49
2018-10-07T08:29:29.449Z,1006.50
2018-10-07T08:30:29.386Z,1006.47
2018-10-07T08:31:29.395Z,1006.72
2018-10-07T08:32:29.356Z,1006.84
2018-10-07T08:33:29.342Z,1006.92
2018-10-07T08:34:29.340Z,1006.97
2018-10-07T08:35:29.443Z,1007.00
2018-10-07T08:36:30.962Z,1006.95
2018-10-07T08:37:29.407Z,1006.90
2018-10-07T08:38:29.424Z,1006.98
2018-10-07T08:39:29.394Z,1007.01
2018-10-07T08:40:29.943Z,1007.02
2018-10-07T08:41:30.610Z,1007.01
2018-10-07T08:42:29.788Z,1007.03
2018-10-07T08:43:29.781Z,1007.00
2018-10-07T08:44:29.888Z,1007.07
2018-10-07T08:45:29.888Z,1007.06
2018-10-07T08:46:29.213Z,1007.05
2018-10-07T08:47:29.183Z,1007.04
2018-10-07T08:48:29.168Z,1007.08
2018-10-07T08:49:29.165Z,1007.04
2018-10-07T08:50:29.151Z,1007.13
2018-10-07T08:51:29.159Z,1007.11
2018-10-07T08:52:29.122Z,1007.10
2018-10-07T08:53:29.128Z,1007.15
2018-10-07T08:54:29.103Z,1006.69
2018-10-07T08:55:29.093Z,1007.24
2018-10-07T08:56:29.168Z,1006.80
2018-10-07T08:57:29.068Z,1007.19
2018-10-07T08:58:29.656Z,1007.27
2018-10-07T08:59:29.046Z,1007.21
2018-10-07T09:00:29.030Z,1007.23
2018-10-07T09:01:29.043Z,1007.26
2018-10-07T09:02:29.015Z,1007.22
2018-10-07T09:03:29.003Z,1006.80
2018-10-07T09:04:28.986Z,1007.26
2018-10-07T09:05:28.980Z,1007.34
2018-10-07T09:06:28.993Z,1007.39
2018-10-07T09:07:28.951Z,1007.06
2018-10-07T09:08:29.333Z,1007.39
2018-10-07T09:09:28.930Z,1007.41
2018-10-07T09:10:28.917Z,1007.43
2018-10-07T09:11:28.937Z,1007.41
2018-10-07T09:12:28.895Z,1007.41
2018-10-07T09:13:28.892Z,1007.44
2018-10-07T09:14:28.927Z,1007.44
2018-10-07T09:15:28.868Z,1007.42
2018-10-07T09:16:29.149Z,1007.41
2018-10-07T09:17:29.005Z,1007.42
2018-10-07T09:18:29.225Z,1007.45
2018-10-07T09:19:29.005Z,1006.94
2018-10-07T09:20:29.016Z,1007.47
2018-10-07T09:21:29.769Z,1007.55
2018-10-07T09:22:28.811Z,1007.19
2018-10-07T09:23:28.785Z,1007.54
2018-10-07T09:24:28.769Z,1007.61
2018-10-07T09:25:28.766Z,1007.64
2018-10-07T09:26:28.782Z,1007.58
2018-10-07T09:27:28.729Z,1007.62
2018-10-07T09:28:28.723Z,1007.65
2018-10-07T09:29:28.706Z,1007.66
2018-10-07T09:30:28.693Z,1007.64
2018-10-07T09:31:28.703Z,1007.61
2018-10-07T09:32:28.805Z,1007.63
2018-10-07T09:33:28.661Z,1007.61
2018-10-07T09:34:28.657Z,1007.60
2018-10-07T09:35:28.638Z,1007.66
2018-10-07T09:36:28.649Z,1007.62
2018-10-07T09:37:28.613Z,1007.17
2018-10-07T09:38:28.607Z,1007.17
2018-10-07T09:39:28.639Z,1007.64
2018-10-07T09:40:28.590Z,1007.54
2018-10-07T09:41:28.591Z,1007.55
2018-10-07T09:42:28.558Z,1007.58
2018-10-07T09:43:28.556Z,1007.61
2018-10-07T09:44:28.536Z,1007.52
2018-10-07T09:45:28.536Z,1007.52
2018-10-07T09:46:28.539Z,1007.52
2018-10-07T09:47:28.508Z,1007.60
2018-10-07T09:48:28.497Z,1007.54
2018-10-07T09:49:28.481Z,1007.00
2018-10-07T09:50:28.469Z,1007.49
2018-10-07T09:51:28.483Z,1007.55
2018-10-07T09:52:28.501Z,1007.58
2018-10-07T09:53:28.453Z,1007.58
2018-10-07T09:54:28.433Z,1007.61
2018-10-07T09:55:28.422Z,1007.16
2018-10-07T09:56:28.427Z,1007.63
2018-10-07T09:57:28.403Z,1007.68
2018-10-07T09:58:28.390Z,1007.65
2018-10-07T09:59:28.370Z,1007.55
2018-10-07T10:00:28.367Z,1007.66
2018-10-07T10:01:28.370Z,1007.64
2018-10-07T10:02:28.353Z,1007.67
2018-10-07T10:03:28.333Z,1007.66
2018-10-07T10:04:28.378Z,1007.64
2018-10-07T10:05:28.307Z,1007.61
2018-10-07T10:06:28.323Z,1007.68
2018-10-07T10:07:28.288Z,1007.67
2018-10-07T10:08:28.275Z,1007.78
2018-10-07T10:09:28.265Z,1007.73
2018-10-07T10:10:28.253Z,1007.76
2018-10-07T10:11:28.266Z,1007.69
2018-10-07T10:12:28.234Z,1007.68
2018-10-07T10:13:28.221Z,1007.72
2018-10-07T10:14:28.206Z,1007.73
2018-10-07T10:15:28.205Z,1007.72
2018-10-07T10:16:28.210Z,1007.72
2018-10-07T10:17:28.192Z,1007.66
2018-10-07T10:18:28.167Z,1007.71
2018-10-07T10:19:28.180Z,1007.76
2018-10-07T10:20:28.144Z,1007.75
2018-10-07T10:21:28.160Z,1007.77
2018-10-07T10:22:28.124Z,1007.72
2018-10-07T10:23:28.110Z,1007.80
2018-10-07T10:24:28.097Z,1007.83
2018-10-07T10:25:28.084Z,1007.83
2018-10-07T10:26:28.076Z,1007.84
2018-10-07T10:27:28.091Z,1007.92
2018-10-07T10:28:28.059Z,1007.90
2018-10-07T10:29:28.040Z,1007.89
2018-10-07T10:30:28.036Z,1007.98
2018-10-07T10:31:28.023Z,1007.94
2018-10-07T10:32:28.039Z,1007.96
2018-10-07T10:33:28.005Z,1007.92
2018-10-07T10:34:27.991Z,1007.90
2018-10-07T10:35:27.976Z,1007.91
2018-10-07T10:36:27.967Z,1007.94
2018-10-07T10:37:27.959Z,1007.92
2018-10-07T10:38:27.971Z,1007.92
2018-10-07T10:39:27.953Z,1007.92
2018-10-07T10:40:27.929Z,1007.92
2018-10-07T10:41:27.922Z,1007.93
2018-10-07T10:42:27.899Z,1007.88
2018-10-07T10:43:27.926Z,1007.90
2018-10-07T10:44:27.878Z,1007.93
2018-10-07T10:45:27.876Z,1007.93
2018-10-07T10:46:27.866Z,1007.92
2018-10-07T10:47:27.848Z,1007.92
2018-10-07T10:48:28.075Z,1007.93
2018-10-07T10:49:27.854Z,1007.93
2018-10-07T10:50:27.812Z,1007.92
2018-10-07T10:51:27.811Z,1007.66
2018-10-07T10:52:27.790Z,1007.77
2018-10-07T10:53:27.791Z,1007.91
2018-10-07T10:54:27.892Z,1007.85
2018-10-07T10:55:28.013Z,1007.47
2018-10-07T10:56:27.756Z,1007.44
2018-10-07T10:57:27.738Z,1007.48
2018-10-07T10:58:27.738Z,1007.54
2018-10-07T10:59:27.724Z,1007.48
2018-10-07T11:00:29.908Z,1007.47
2018-10-07T11:01:27.710Z,1007.53
2018-10-07T11:02:27.776Z,1007.71
2018-10-07T11:03:27.753Z,1007.75
2018-10-07T11:04:27.733Z,1007.88
2018-10-07T11:05:27.961Z,1007.86
2018-10-07T11:06:27.645Z,1007.70
2018-10-07T11:07:27.625Z,1007.52
2018-10-07T11:08:27.617Z,1007.63
2018-10-07T11:09:27.608Z,1007.67
2018-10-07T11:10:27.592Z,1007.99
2018-10-07T11:11:27.611Z,1007.71
2018-10-07T11:12:27.577Z,1007.70
2018-10-07T11:13:27.561Z,1007.86
2018-10-07T11:14:27.551Z,1007.79
2018-10-07T11:15:27.653Z,1008.07
2018-10-07T11:16:27.551Z,1008.08
2018-10-07T11:17:27.521Z,1008.05
2018-10-07T11:18:27.510Z,1008.08
2018-10-07T11:19:27.557Z,1008.18
2018-10-07T11:20:27.516Z,1008.19
2018-10-07T11:21:27.469Z,1008.23
2018-10-07T11:22:27.462Z,1008.20
2018-10-07T11:23:27.447Z,1008.12
2018-10-07T11:24:27.444Z,1008.11
2018-10-07T11:25:27.560Z,1008.18
2018-10-07T11:26:27.650Z,1008.11
2018-10-07T11:27:27.405Z,1008.14
2018-10-07T11:28:27.397Z,1008.04
2018-10-07T11:29:27.413Z,1008.09
2018-10-07T11:30:27.612Z,1008.08
2018-10-07T11:31:27.388Z,1008.05
2018-10-07T11:32:27.483Z,1008.09
2018-10-07T11:33:27.338Z,1007.98
2018-10-07T11:34:27.328Z,1008.00
2018-10-07T11:35:27.315Z,1007.91
2018-10-07T11:36:27.306Z,1008.03
2018-10-07T11:37:27.317Z,1007.99
2018-10-07T11:38:27.285Z,1007.97
2018-10-07T11:39:27.266Z,1008.05
2018-10-07T11:40:27.257Z,1008.06
2018-10-07T11:41:27.250Z,1008.04
2018-10-07T11:42:27.259Z,1008.08
2018-10-07T11:43:27.229Z,1008.02
2018-10-07T11:44:27.216Z,1008.03
2018-10-07T11:45:27.207Z,1008.04
2018-10-07T11:46:27.197Z,1008.04
2018-10-07T11:47:27.207Z,1008.05
2018-10-07T11:48:27.170Z,1007.97
2018-10-07T11:49:27.158Z,1007.95
2018-10-07T11:50:27.143Z,1007.94
2018-10-07T11:51:27.138Z,1007.92
2018-10-07T11:52:27.124Z,1007.97
2018-10-07T11:53:27.137Z,1007.94
2018-10-07T11:54:27.097Z,1007.94
2018-10-07T11:55:27.097Z,1007.85
2018-10-07T11:56:27.078Z,1007.86
2018-10-07T11:57:27.072Z,1007.89
2018-10-07T11:58:27.085Z,1007.86
2018-10-07T11:59:27.043Z,1007.77
2018-10-07T12:00:27.040Z,1007.82
2018-10-07T12:01:27.019Z,1007.82
2018-10-07T12:02:27.013Z,1007.80
2018-10-07T12:03:27.024Z,1007.76
2018-10-07T12:04:26.989Z,1007.79
2018-10-07T12:05:26.981Z,1007.87
2018-10-07T12:06:26.970Z,1007.81
2018-10-07T12:07:26.962Z,1007.83
2018-10-07T12:08:26.971Z,1007.80
2018-10-07T12:09:26.935Z,1007.78